createdAt,value
2022-11-01T00:06:37.828Z,54.04
2022-11-01T00:13:02.289Z,54.21
2022-11-01T00:19:26.685Z,54.17
2022-11-01T00:25:50.976Z,54.03
2022-11-01T00:32:15.315Z,54.20
2022-11-01T00:38:39.574Z,54.20
2022-11-01T00:45:03.814Z,54.40
2022-11-01T00:51:30.773Z,54.34
2022-11-01T00:57:54.865Z,54.37
2022-11-01T01:04:19.144Z,54.33
2022-11-01T01:10:43.376Z,54.53
2022-11-01T01:17:07.632Z,54.40
2022-11-01T01:23:32.057Z,54.44
2022-11-01T01:29:58.893Z,54.50
2022-11-01T01:36:23.319Z,54.51
2022-11-01T01:42:50.307Z,54.39
2022-11-01T01:49:17.406Z,54.34
2022-11-01T01:55:41.731Z,54.40
2022-11-01T02:02:06.018Z,54.62
2022-11-01T02:08:30.324Z,54.45
2022-11-01T02:14:54.508Z,54.45
2022-11-01T02:21:21.921Z,54.40
2022-11-01T02:27:47.990Z,54.41
2022-11-01T02:34:13.170Z,54.38
2022-11-01T02:40:37.504Z,54.42
2022-11-01T02:47:00.274Z,54.59
2022-11-01T02:53:24.584Z,54.07
2022-11-01T02:59:48.880Z,54.09
2022-11-01T03:06:21.925Z,54.01
2022-11-01T03:12:49.230Z,54.01
2022-11-01T03:19:16.215Z,53.96
2022-11-01T03:26:01.276Z,54.03
2022-11-01T03:32:25.725Z,53.96
2022-11-01T03:38:49.953Z,54.03
2022-11-01T03:45:14.234Z,54.27
2022-11-01T03:51:38.506Z,54.38
2022-11-01T03:58:02.965Z,54.34
2022-11-01T04:04:27.535Z,54.59
2022-11-01T04:10:51.850Z,54.43
2022-11-01T04:17:14.516Z,54.63
2022-11-01T04:23:38.751Z,54.36
2022-11-01T04:30:02.980Z,54.43
2022-11-01T04:36:27.231Z,54.63
2022-11-01T04:42:51.447Z,54.79
2022-11-01T04:49:15.768Z,54.63
2022-11-01T04:55:39.996Z,54.44
2022-11-01T05:02:07.180Z,54.74
2022-11-01T05:08:31.450Z,54.53
2022-11-01T05:14:56.938Z,54.54
2022-11-01T05:21:21.381Z,54.69
2022-11-01T05:27:45.630Z,54.83
2022-11-01T05:34:09.920Z,54.60
2022-11-01T05:40:34.238Z,54.48
2022-11-01T05:46:58.433Z,54.12
2022-11-01T05:53:22.720Z,54.14
2022-11-01T05:59:46.983Z,54.31
2022-11-01T06:06:11.282Z,54.35
2022-11-01T06:12:35.471Z,54.22
2022-11-01T06:18:59.783Z,54.33
2022-11-01T06:25:24.037Z,54.39
2022-11-01T06:31:48.316Z,54.43
2022-11-01T06:38:12.613Z,54.59
2022-11-01T06:44:36.825Z,54.35
2022-11-01T06:51:01.064Z,54.19
2022-11-01T06:57:25.337Z,54.19
2022-11-01T07:03:49.563Z,54.58
2022-11-01T07:10:13.859Z,54.25
2022-11-01T07:16:38.089Z,54.23
2022-11-01T07:23:02.611Z,54.30
2022-11-01T07:29:27.297Z,54.29
2022-11-01T07:35:51.597Z,54.36
2022-11-01T07:42:15.852Z,54.20
2022-11-01T07:48:42.704Z,54.44
2022-11-01T07:55:07.004Z,54.52
2022-11-01T08:01:31.496Z,54.11
2022-11-01T08:07:55.866Z,54.18
2022-11-01T08:14:20.411Z,54.24
2022-11-01T08:20:44.855Z,54.39
2022-11-01T08:27:09.136Z,54.18
2022-11-01T08:33:33.389Z,54.09
2022-11-01T08:39:57.920Z,54.13
2022-11-01T08:46:22.253Z,53.92
2022-11-01T08:52:46.432Z,54.08
2022-11-01T08:59:10.871Z,53.78
2022-11-01T09:05:35.176Z,53.89
2022-11-01T09:11:59.421Z,53.91
2022-11-01T09:18:23.789Z,54.07
2022-11-01T09:24:48.402Z,53.73
2022-11-01T09:31:20.821Z,53.49
2022-11-01T09:37:46.006Z,53.62
2022-11-01T09:44:10.235Z,53.62
2022-11-01T09:50:40.024Z,53.66
2022-11-01T09:57:22.841Z,53.80
2022-11-01T10:04:08.423Z,53.69
2022-11-01T10:10:36.837Z,53.65
2022-11-01T10:16:57.105Z,53.51
2022-11-01T10:23:26.972Z,53.48
2022-11-01T10:30:06.269Z,53.53
2022-11-01T10:36:30.695Z,53.61
2022-11-01T10:42:54.981Z,53.33
2022-11-01T10:49:40.515Z,53.18
2022-11-01T10:56:17.468Z,53.41
2022-11-01T11:02:44.299Z,53.32
2022-11-01T11:09:08.535Z,53.28
2022-11-01T11:15:39.016Z,53.25
2022-11-01T11:22:03.500Z,53.32
2022-11-01T11:28:27.735Z,53.33
2022-11-01T11:34:54.665Z,53.15
2022-11-01T11:41:21.880Z,53.16
2022-11-01T11:47:46.094Z,53.30
2022-11-01T11:54:16.058Z,53.40
2022-11-01T12:00:40.497Z,53.12
2022-11-01T12:07:07.665Z,53.20
2022-11-01T12:13:34.866Z,53.17
2022-11-01T12:20:04.896Z,53.38
2022-11-01T12:26:29.599Z,53.38
2022-11-01T12:32:59.530Z,53.42
2022-11-01T12:39:14.874Z,53.37
2022-11-01T12:45:39.148Z,53.34
2022-11-01T12:52:03.423Z,53.34
2022-11-01T12:58:30.872Z,53.26
2022-11-01T13:05:06.830Z,53.47
2022-11-01T13:11:37.095Z,53.32
2022-11-01T13:18:13.350Z,53.65
2022-11-01T13:24:37.645Z,53.53
2022-11-01T13:31:04.651Z,53.71
2022-11-01T13:37:34.609Z,53.71
2022-11-01T13:44:07.518Z,53.66
2022-11-01T13:50:37.775Z,53.48
2022-11-01T13:57:02.065Z,53.76
2022-11-01T14:03:32.535Z,53.74
2022-11-01T14:10:15.081Z,53.80
2022-11-01T14:16:55.064Z,53.78
2022-11-01T14:23:31.961Z,53.95
2022-11-01T14:29:56.338Z,53.98
2022-11-01T14:36:20.968Z,54.02
2022-11-01T14:42:45.262Z,54.07
2022-11-01T14:49:27.736Z,53.90
2022-11-01T14:55:54.953Z,53.97
2022-11-01T15:02:25.028Z,54.19
2022-11-01T15:09:01.665Z,54.16
2022-11-01T15:15:25.964Z,54.10
2022-11-01T15:21:50.274Z,54.05
2022-11-01T15:28:17.848Z,54.07
2022-11-01T15:34:42.047Z,54.12
2022-11-01T15:41:11.895Z,53.96
2022-11-01T15:47:39.212Z,54.11
2022-11-01T15:54:03.482Z,54.08
2022-11-01T16:00:27.679Z,54.17
2022-11-01T16:06:51.915Z,54.19
2022-11-01T16:13:16.088Z,54.34
2022-11-01T16:19:40.309Z,54.29
2022-11-01T16:26:07.519Z,53.96
2022-11-01T16:32:31.734Z,54.31
2022-11-01T16:38:56.324Z,54.25
2022-11-01T16:45:20.644Z,54.17
2022-11-01T16:51:45.072Z,54.29
2022-11-01T16:58:09.351Z,54.20
2022-11-01T17:04:33.646Z,54.08
2022-11-01T17:11:00.506Z,54.14
2022-11-01T17:17:24.927Z,54.22
2022-11-01T17:23:49.340Z,54.17
2022-11-01T17:30:13.657Z,54.26
2022-11-01T17:36:37.895Z,54.36
2022-11-01T17:43:02.181Z,54.19
2022-11-01T17:49:26.387Z,54.41
2022-11-01T17:55:50.716Z,54.21
2022-11-01T18:02:15.296Z,54.33
2022-11-01T18:08:39.900Z,54.19
2022-11-01T18:15:06.761Z,54.11
2022-11-01T18:21:29.502Z,54.46
2022-11-01T18:27:53.408Z,54.10
2022-11-01T18:34:16.953Z,54.19
2022-11-01T18:40:50.421Z,54.25
2022-11-01T18:47:17.966Z,54.51
2022-11-01T18:53:42.220Z,54.24
2022-11-01T19:00:12.274Z,54.21
2022-11-01T19:06:42.123Z,54.34
2022-11-01T19:13:21.114Z,54.42
2022-11-01T19:19:45.324Z,54.33
2022-11-01T19:26:12.654Z,54.42
2022-11-01T19:32:39.647Z,54.44
2022-11-01T19:39:04.133Z,54.24
2022-11-01T19:45:28.462Z,54.08
2022-11-01T19:51:53.064Z,54.42
2022-11-01T19:58:23.560Z,54.20
2022-11-01T20:04:56.846Z,54.20
2022-11-01T20:11:21.152Z,54.15
2022-11-01T20:24:14.557Z,54.40
2022-11-01T20:30:38.835Z,54.15
2022-11-01T20:37:29.577Z,54.34
2022-11-01T20:43:47.644Z,54.15
2022-11-01T20:50:11.863Z,54.31
2022-11-01T20:56:36.194Z,54.24
2022-11-01T21:03:00.522Z,54.31
2022-11-01T21:09:27.697Z,54.42
2022-11-01T21:16:04.200Z,54.54
2022-11-01T21:22:28.529Z,54.45
2022-11-01T21:28:46.383Z,54.41
2022-11-01T21:35:10.560Z,54.46
2022-11-01T21:41:34.960Z,54.17
2022-11-01T21:47:59.294Z,54.21
2022-11-01T21:54:23.471Z,54.28
2022-11-01T22:00:47.885Z,54.37
2022-11-01T22:07:12.099Z,54.34
2022-11-01T22:13:36.309Z,54.20
2022-11-01T22:19:53.191Z,54.48
2022-11-01T22:26:17.440Z,54.29
2022-11-01T22:32:41.643Z,54.19
2022-11-01T22:39:11.728Z,54.36
2022-11-01T22:45:36.252Z,54.50
2022-11-01T22:52:00.529Z,54.27
2022-11-01T22:58:24.829Z,54.39
2022-11-01T23:04:49.038Z,54.26
2022-11-01T23:11:22.268Z,54.29
2022-11-01T23:17:37.854Z,54.54
2022-11-01T23:24:02.098Z,54.26
2022-11-01T23:30:26.283Z,54.30
2022-11-01T23:36:50.627Z,54.24
2022-11-01T23:43:17.598Z,54.19
2022-11-01T23:49:42.096Z,54.40
2022-11-01T23:56:09.395Z,54.36
